Woodworth, LA (71485)

2:14 PM CDT on August 18, 2017 (GMT -0500)
Lsua | | Change Station

Elev 128 ft 31.17 °N, 92.41 °W | Updated 33 seconds ago

Partly Cloudy
Partly Cloudy
93.0 °F
Feels Like 107 °F
N
0.0
Wind Variable Wind from West

Today
High -- | Low -- °F
--% Chance of Precip.
Yesterday
High -- | Low -- °F
Precip. -- in
Pressure 30.02 in
Visibility 10.0 miles
Clouds Few 3900 ft
Few 4900 ft
Scattered Clouds 5500 ft
Heat Index 107 °F
Dew Point 77 °F
Humidity 60%
Rainfall 0.00 in
Snow Depth Not available.
6:37 AM 7:49 PM
Waning Crescent, 12% visible
METAR KAEX 181853Z 31003KT 10SM FEW039 FEW049 SCT055 33/24 A3001 RMK AO2 SLP164 T03280239 $
Pressure 30.02 in
Visibility 10.0 miles
Clouds Few 3900 ft
Few 4900 ft
Scattered Clouds 5500 ft
Heat Index 107 °F
Dew Point 77 °F
Humidity 60%
Rainfall 0.00 in
Snow Depth Not available.
6:37 AM 7:49 PM
Waning Crescent, 12% visible
METAR KAEX 181853Z 31003KT 10SM FEW039 FEW049 SCT055 33/24 A3001 RMK AO2 SLP164 T03280239 $

Get Severe Weather Alerts

Thanks for signing up!

Be on the lookout for a verification email in your inbox.

You'll start receiving the daily forecast at 6 AM.

×

10-Day Weather Forecast

Almanac

Astronomy

Aug. 18, 2017 Rise Set
Actual Time
Civil Twilight
Nautical Twilight
Astronomical Twilight
Moon
Length of Visible Light
Length of Day
Tomorrow will be .
, % of the Moon is Illuminated

Today's Extremes

State Highs State Lows

Community

WunderPhotos

Category 6

Welcome to Category 6. This is the collective home for Weather Underground's featured writeups by Dr. Jeff Masters (right), Bob Henson (left), Chris Burt, and other regular contributors.

Nearby

Air Quality

  Air Quality AQ Index Pollutant
Not available.

Snow Depth

Station Depth Elevation

Earthquake Activity

City Distance Mag. Time & Date
Minimum magnitude displayed is 2.5.

Coastal Water Temperatures

Place Temperature

Stations

Nearby Weather Stations

Station Location Temp. Windchill Dew Point Humidity Wind Precip. Elev Updated Type
                   

Watches & Warnings

There are currently no watches in effect.